Kuching International Airport Kuching MY
ICAO: WBGG
IATA: KCH
Category: Medium
Scheduled Services: Yes

Elevation: 89 ft
TransAlt. 11000 ft.

Airport Communications:
RDR:134.5
APP DIRECTOR:120.2
ATIS:128.4
GND:121.9
TWR:118.1

WBGG Zoom In..

If you have problems with the map follow the link
https://www.worldairports.se/pages/airport.php?
ICAO=WBGG

Runways:

(A) RW 07 length 12402 ft width 151 ft
---- / hdg 68

(B) RW 25 length 12402 ft width 151 ft
ILS 110.30 / hdg 248

Location; WBGG
Day. 14 / Time. 08.00 Zulu
* QNH: 1007
* Temperature: 32° c. 89.6°f.
* Wind from: 050° Speed 05 kn.
Dewpoint: 22° c.
Visibility: 10 km or more.
Clouds: Few 2200 ft.
Clouds: Scattered 15000 ft.
Clouds: Broken 3000 ft.
No significant changes expected in the near future.

WBGG 140800Z 05005KT 350V110 9999 FEW022 SCT150 BKN300 32/22 Q1007 NOSIG


Wind From 050°
Speed 05 kn.

 
 
jpsmedia worldairports.se 2019   terms of use